• Join FlightAware (Why Join?)
  • Login
  • US Flag 
10:30AM EDT


 

Airport Tracker/Info


-or-


 

Live Flight TrackerFlight Track Log ✈ BJS438 ✈ 21-Jun-2013 ✈ KBOS - KPWK

Flight Track Log - Related Links

Times and Time Zones

All times are in EDT time to prevent confusion due to time zone crossing. See the BJS438 flight status page for this flight to view local times or setup timezone preferences in your user account.

Time Position Orientation Groundspeed Altitude Reporting Facility
EDT Latitude Longitude Course Direction KTS MPH feet Rate Location/Type
02:07PM 42.3500 -71.0167 160° South 161 185 900  Level KA90
02:07PM 42.3167 -71.0000 160° South 225 259 2,200 2,640 Climbing KA90
02:08PM 42.3167 -70.9167 90° East 267 307 5,200 2,940 Climbing KA90
02:09PM 42.3186 -70.8678 87° East 278 320 6,700 3,060 Climbing Boston Center
02:10PM 42.3444 -70.7772 69° East 304 350 9,900 3,420 Climbing Boston Center
02:11PM 42.4167 -70.7247 28° Northeast 281 323 13,600 3,780 Climbing Boston Center
02:12PM 42.5044 -70.7419 352° North 273 314 17,500 3,420 Climbing Boston Center
02:13PM 42.5703 -70.8331 314° West 300 345 20,500 2,700 Climbing Boston Center
02:14PM 42.6239 -70.9447 303° West 331 381 22,900 2,400 Climbing Boston Center
02:15PM 42.6839 -71.0647 304° West 356 410 25,400 2,700 Climbing Boston Center
02:16PM 42.7394 -71.1878 302° West 373 429 28,400 2,820 Climbing Boston Center
02:17PM 42.7844 -71.3114 296° West 373 429 31,100 2,400 Climbing Boston Center
02:19PM 42.8119 -71.5939 278° West 363 418 35,700 2,040 Climbing Boston Center
02:20PM 42.8253 -71.7267 278° West 357 411 37,300 1,260 Climbing Boston Center
02:21PM 42.8386 -71.8625 278° West 357 411 38,300 1,200 Climbing Boston Center
02:22PM 42.8517 -71.9983 278° West 362 417 39,800 1,320 Climbing Boston Center
02:23PM 42.8628 -72.1314 277° West 362 417 41,000 960 Climbing Boston Center
02:24PM 42.8817 -72.2842 280° West 374 430 42,100 780 Climbing Boston Center
02:25PM 42.8944 -72.4458 276° West 374 430 43,000 420 Climbing Boston Center
02:26PM 42.9067 -72.5536 279° West 369 425 43,000  Level Boston Center
02:27PM 42.9147 -72.7319 274° West 369 425 43,000  Level Boston Center
02:28PM 42.9269 -72.8739 277° West 369 425 43,000  Level Boston Center
02:29PM 42.9431 -73.0072 279° West 384 442 43,000  Level Boston Center
02:30PM 42.9547 -73.1522 276° West 389 448 43,000  Level Boston Center
02:31PM 42.9661 -73.2997 276° West 389 448 43,000  Level Boston Center
02:32PM 42.9711 -73.4447 273° West 389 448 43,000  Level Boston Center
02:33PM 42.9844 -73.5894 277° West 389 448 43,000  Level Boston Center
02:34PM 42.9953 -73.7403 276° West 389 448 43,000  Level Boston Center
02:35PM 43.0081 -73.8881 277° West 395 455 43,000  Level Boston Center
02:36PM 43.0186 -74.0389 276° West 395 455 43,000  Level Boston Center
02:37PM 43.0308 -74.1897 276° West 400 460 43,000  Level Boston Center
02:38PM 43.0411 -74.3350 276° West 400 460 43,000  Level Boston Center
02:39PM 43.0511 -74.4858 275° West 400 460 43,000  Level Boston Center
02:40PM 43.0628 -74.6369 276° West 400 460 43,000  Level Boston Center
02:41PM 43.0703 -74.7822 274° West 400 460 43,000  Level Boston Center
02:42PM 43.0831 -74.9617 276° West 406 467 43,000  Level Boston Center
02:43PM 43.0939 -75.1328 275° West 406 467 43,000  Level Boston Center
02:45PM 43.1048 -75.3264 274° West  Level FlightAware Approximate
02:45PM 43.1133 -75.4436 274° West 411 473 43,000  Level Boston Center
02:46PM 43.1233 -75.6036 275° West 411 473 43,000  Level Boston Center
02:47PM 43.1339 -75.7550 276° West 416 479 43,000  Level Boston Center
02:48PM 43.1456 -75.9150 276° West 416 479 43,000  Level Boston Center
02:49PM 43.1553 -76.0750 275° West 416 479 43,000  Level Boston Center
02:51PM 43.1514 -76.3397 269° West 420 483 43,000  Level Cleveland Center
02:52PM 43.1344 -76.5003 262° West 426 490 43,000  Level Cleveland Center
02:53PM 43.1211 -76.6633 264° West 426 490 43,000  Level Cleveland Center
02:54PM 43.1072 -76.8094 263° West 426 490 43,000  Level Cleveland Center
02:55PM 43.0936 -76.9722 264° West 426 490 43,000  Level Cleveland Center
02:57PM 43.0639 -77.2981 263° West 432 497 43,000  Level Cleveland Center
02:58PM 43.0497 -77.4608 263° West 432 497 43,000  Level Cleveland Center
02:59PM 43.0331 -77.6264 262° West 432 497 43,000  Level Cleveland Center
03:00PM 43.0183 -77.7919 263° West 438 504 43,000  Level Cleveland Center
03:01PM 42.9997 -77.9717 262° West 443 510 43,000  Level Cleveland Center
03:02PM 42.9825 -78.1311 262° West 443 510 43,000  Level Cleveland Center
03:03PM 42.9669 -78.2936 263° West 437 503 43,000  Level Cleveland Center
03:04PM 42.9511 -78.4531 262° West 437 503 43,000  Level Cleveland Center
03:05PM 42.9353 -78.6153 262° West 432 497 43,000  Level Cleveland Center
03:06PM 42.9358 -78.7739 270° West 425 489 43,000  Level Cleveland Center
03:07PM 42.9333 -78.9333 269° West 430 495 43,000  Level Toronto Center
03:08PM 42.9500 -79.0667 280° West 430 495 43,000 120 Level Toronto Center
03:10PM 42.9711 -79.4169 275° West 425 489 43,500 540 Climbing Cleveland Center
03:11PM 42.9667 -79.5500 267° West 410 472 44,700 720 Climbing Toronto Center
03:12PM 42.9667 -79.7000 270° West 410 472 45,000 120 Climbing Toronto Center
03:13PM 42.9833 -79.8667 278° West 420 483 45,000  Level Toronto Center
03:14PM 42.9833 -80.0500 270° West 420 483 45,000  Level Toronto Center
03:15PM 43.0000 -80.1833 280° West 420 483 45,000  Level Toronto Center
03:16PM 43.0000 -80.3667 270° West 420 483 45,000  Level Toronto Center
03:17PM 43.0000 -80.5167 270° West 420 483 45,000  Level Toronto Center
03:18PM 43.0000 -80.6667 270° West 420 483 45,000  Level Toronto Center
03:19PM 42.9833 -80.8333 262° West 420 483 45,000  Level Toronto Center
03:20PM 42.9833 -80.9833 270° West 420 483 45,000  Level Toronto Center
03:21PM 42.9833 -81.1667 270° West 420 483 45,000  Level Toronto Center
03:22PM 42.9833 -81.3167 270° West 420 483 45,000  Level Toronto Center
03:23PM 42.9833 -81.4833 270° West 420 483 45,000  Level Toronto Center
03:24PM 43.0000 -81.6333 279° West 430 495 45,000  Level Toronto Center
03:25PM 43.0000 -81.8000 270° West 420 483 45,000  Level Toronto Center
03:26PM 42.9833 -81.9500 261° West 420 483 45,000  Level Toronto Center
03:27PM 42.9833 -82.1167 270° West 420 483 45,000  Level Toronto Center
03:28PM 42.9833 -82.2833 270° West 430 495 45,000  Level Toronto Center
03:29PM 42.9833 -82.4333 270° West 430 495 45,000  Level Toronto Center
03:30PM 42.9833 -82.6167 270° West 430 495 45,000  Level Toronto Center
03:31PM 42.9667 -82.7500 260° West 430 495 45,000 -180 Level Toronto Center
03:32PM 42.9500 -82.9167 262° West 430 495 44,700 -780 Descending Toronto Center
03:33PM 42.9333 -83.1000 263° West 430 495 43,500 -1,260 Descending Toronto Center
03:34PM 42.9128 -83.2564 260° West 426 490 42,000 -1,380 Descending Cleveland Center
03:35PM 42.8906 -83.4028 258° West 413 475 40,600 -1,500 Descending Cleveland Center
03:36PM 42.8703 -83.5464 259° West 402 463 39,100 -1,500 Descending Cleveland Center
03:37PM 42.8519 -83.6872 260° West 391 450 37,700 -1,500 Descending Cleveland Center
03:38PM 42.8244 -83.8472 257° West 391 450 36,100 -1,440 Descending Cleveland Center
03:39PM 42.8011 -84.0075 259° West 412 474 34,900 -1,260 Descending Cleveland Center
03:40PM 42.7772 -84.1731 259° West 430 495 33,600 -1,200 Descending Cleveland Center
03:41PM 42.7567 -84.2992 258° West 442 509 32,600 -1,200 Descending Cleveland Center
03:42PM 42.7322 -84.4703 259° West 432 497 31,200 -1,140 Descending Cleveland Center
03:43PM 42.6953 -84.7042 258° West 450 518 30,000 -540 Descending Chicago Center
03:44PM 42.6672 -84.8772 258° West 464 534 30,000  Level Chicago Center
03:45PM 42.6411 -85.0467 258° West 462 532 30,000 -420 Level Chicago Center
03:46PM 42.6142 -85.2125 258° West 456 525 29,200 -1,140 Descending Chicago Center
03:48PM 42.5878 -85.3692 257° West 436 502 27,700 -1,500 Descending Chicago Center
03:49PM 42.5647 -85.5158 258° West 406 467 26,200 -1,620 Descending Chicago Center
03:50PM 42.5336 -85.6983 257° West 411 473 24,400 -1,620 Descending Chicago Center
03:51PM 42.5083 -85.8542 258° West 422 486 22,900 -1,440 Descending Chicago Center
03:52PM 42.4819 -86.0056 257° West 414 476 21,500 -1,320 Descending Chicago Center
03:53PM 42.4608 -86.1492 259° West 394 453 20,200 -1,800 Descending Chicago Center
03:54PM 42.4558 -86.2889 267° West 373 429 17,900 -2,280 Descending Chicago Center
03:55PM 42.4486 -86.4217 266° West 357 411 15,600 -2,280 Descending Chicago Center
03:56PM 42.4419 -86.5431 266° West 326 375 13,300 -2,340 Descending Chicago Center
03:57PM 42.4347 -86.6792 266° West 305 351 10,800 -1,920 Descending Chicago Center
03:58PM 42.4297 -86.7819 266° West 277 319 9,400 -1,380 Descending Chicago Center
03:59PM 42.4244 -86.8736 266° West 251 289 8,000 -1,440 Descending Chicago Center
04:00PM 42.4194 -86.9683 266° West 253 291 6,500 -1,380 Descending Chicago Center
04:01PM 42.4131 -87.0614 265° West 250 288 5,200 -1,200 Descending Chicago Center
04:02PM 42.4042 -87.1447 262° West 231 266 4,100 -1,140 Descending Chicago Center
04:03PM 42.3944 -87.2553 263° West 247 284 2,900 -600 Descending Chicago Center
04:04PM 42.3858 -87.3578 264° West 258 297 2,900  Level Chicago Center
04:05PM 42.3769 -87.4533 263° West 259 298 2,900  Level Chicago Center
04:06PM 42.3669 -87.5436 262° West 256 295 2,900  Level Chicago Center
04:07PM 42.3611 -87.6367 265° West 248 285 2,900  Level Chicago Center
04:08PM 42.3483 -87.7444 261° West 251 289 2,900  Level Chicago Center
04:09PM 42.3414 -87.8350 264° West 250 288 2,900  Level Chicago Center
04:10PM 42.3364 -87.9089 265° West 216 249 2,900  Level Chicago Center
04:11PM 42.3317 -87.9722 264° West 186 214 2,900 -300 Level Chicago Center
04:12PM 42.2833 -87.9753 183° South 185 213 2,300 -300 Descending Chicago Center
04:13PM 42.2308 -87.9653 172° South 171 197 2,300  Level Chicago Center
04:14PM 42.1953 -87.9492 161° South 150 173 2,300 -300 Level Chicago Center
04:15PM 42.1658 -87.9308 155° Southeast 133 153 1,700 -540 Descending Chicago Center
04:17PM 42.1378 -87.9158 158° South 125 144 1,200 -360 Descending Chicago Center
04:18PM 42.1053 -87.8967 156° South 119 137 1,000 -240 Descending Chicago Center